Time;durP1;ratioP1;P1;durP2;ratioP2;P2;SDS_P1;SDS_P2;PMS_P1;PMS_P2;Temp;Humidity;BMP_temperature;BMP_pressure;BME280_temperature;BME280_humidity;BME280_pressure;Samples;Min_cycle;Max_cycle;Signal;HPM_P1;HPM_P2
2021/01/25 00:01:42;;;;;;;5.07;0.65;;;6.40;99.90;;;;;;5011956;28;20052;-64
2021/01/25 00:04:08;;;;;;;4.53;1.50;;;6.40;99.90;;;;;;5012877;28;20021;-67
2021/01/25 00:06:35;;;;;;;9.55;2.15;;;6.40;99.90;;;;;;5013166;28;20030;-67
2021/01/25 00:09:03;;;;;;;5.10;1.20;;;6.30;99.90;;;;;;5012228;28;20044;-66
2021/01/25 00:11:30;;;;;;;3.05;0.80;;;6.30;99.90;;;;;;5012034;28;20053;-67
2021/01/25 00:13:57;;;;;;;5.22;1.45;;;6.30;99.90;;;;;;5012195;28;20033;-69
2021/01/25 00:16:25;;;;;;;11.32;1.83;;;6.20;99.90;;;;;;5012572;28;20034;-68
2021/01/25 00:18:52;;;;;;;7.05;1.23;;;6.30;99.90;;;;;;5012397;28;20026;-69
2021/01/25 00:21:19;;;;;;;14.02;1.92;;;6.20;99.90;;;;;;5012528;28;20053;-68
2021/01/25 00:23:46;;;;;;;11.75;2.40;;;6.20;99.90;;;;;;4995187;28;20486;-69
2021/01/25 00:26:13;;;;;;;27.98;6.80;;;6.20;99.90;;;;;;5012540;28;20026;-68
2021/01/25 00:28:40;;;;;;;11.57;6.93;;;6.20;99.90;;;;;;5011777;28;20467;-68
2021/01/25 00:31:07;;;;;;;12.50;4.75;;;6.30;99.90;;;;;;5012363;28;20372;-68
2021/01/25 00:33:34;;;;;;;8.93;2.63;;;6.20;99.90;;;;;;5012006;28;20029;-68
2021/01/25 00:36:01;;;;;;;72.40;12.57;;;6.20;99.90;;;;;;5012249;28;20026;-67
2021/01/25 00:38:28;;;;;;;10.80;3.42;;;6.20;99.90;;;;;;5012270;28;20030;-67
2021/01/25 00:40:55;;;;;;;11.10;4.00;;;6.10;99.90;;;;;;5012103;28;20030;-66
2021/01/25 00:43:21;;;;;;;491.10;45.15;;;6.10;99.90;;;;;;5011237;28;20033;-67
2021/01/25 00:45:48;;;;;;;77.53;11.40;;;6.10;99.90;;;;;;5011198;28;20046;-67
2021/01/25 00:48:15;;;;;;;101.50;10.13;;;6.20;99.90;;;;;;5012043;28;20402;-66
2021/01/25 00:50:42;;;;;;;6.68;1.75;;;6.20;99.90;;;;;;5011520;28;20033;-65
2021/01/25 00:53:11;;;;;;;4.82;1.70;;;6.10;99.90;;;;;;5011761;28;20054;-66
2021/01/25 00:55:38;;;;;;;5.70;1.77;;;6.00;99.90;;;;;;5008594;28;20030;-66
2021/01/25 00:58:05;;;;;;;110.30;9.90;;;6.00;99.90;;;;;;5010633;28;20060;-66
2021/01/25 01:00:32;;;;;;;6.13;2.15;;;5.90;99.90;;;;;;4993654;28;20054;-67
2021/01/25 01:02:58;;;;;;;7.40;2.35;;;5.90;99.90;;;;;;5011737;28;20640;-68
2021/01/25 01:05:25;;;;;;;630.42;63.85;;;5.90;99.90;;;;;;5011698;28;20402;-68
2021/01/25 01:07:52;;;;;;;143.75;12.75;;;5.90;99.90;;;;;;5011428;28;20038;-67
2021/01/25 01:10:19;;;;;;;289.65;23.17;;;5.90;99.90;;;;;;5011401;28;20374;-67
2021/01/25 01:12:46;;;;;;;764.88;73.20;;;5.90;99.90;;;;;;5022298;28;20385;-67
2021/01/25 01:15:14;;;;;;;400.05;34.30;;;5.90;99.90;;;;;;5012209;28;20033;-67
2021/01/25 01:17:42;;;;;;;165.52;18.55;;;5.90;99.90;;;;;;5010979;28;20014;-66
2021/01/25 01:20:11;;;;;;;386.77;30.48;;;5.80;99.90;;;;;;5011508;28;20030;-67
2021/01/25 01:22:38;;;;;;;489.85;47.88;;;5.80;99.90;;;;;;5011109;28;20026;-67
2021/01/25 01:25:07;;;;;;;1018.92;104.72;;;5.80;99.90;;;;;;5010339;28;20380;-67
2021/01/25 01:27:35;;;;;;;980.05;90.95;;;5.80;99.90;;;;;;5011424;28;20022;-68
2021/01/25 01:30:02;;;;;;;745.20;72.68;;;5.80;99.90;;;;;;5010338;28;20041;-67
2021/01/25 01:32:29;;;;;;;804.65;82.60;;;5.80;99.90;;;;;;5011055;28;20418;-67
2021/01/25 01:34:56;;;;;;;1315.72;129.35;;;5.90;99.90;;;;;;5010305;28;20033;-66
2021/01/25 01:37:23;;;;;;;1065.05;110.15;;;5.80;99.90;;;;;;5011253;28;20053;-66
2021/01/25 01:39:50;;;;;;;1155.68;120.25;;;5.90;99.90;;;;;;5010889;28;20022;-66
2021/01/25 01:42:20;;;;;;;1251.97;130.82;;;5.90;99.90;;;;;;5011329;28;20030;-65
2021/01/25 01:44:47;;;;;;;1107.07;116.93;;;5.90;99.90;;;;;;5010473;28;20174;-66
2021/01/25 01:47:19;;;;;;;1158.22;125.93;;;5.90;99.90;;;;;;5010656;28;20054;-66
2021/01/25 01:49:47;;;;;;;1237.93;128.55;;;5.90;99.90;;;;;;5010948;28;20375;-67
2021/01/25 01:52:15;;;;;;;1037.80;110.18;;;5.90;99.90;;;;;;5011212;28;20034;-66
2021/01/25 01:54:42;;;;;;;1362.95;132.93;;;5.90;99.90;;;;;;5008009;28;20041;-66
2021/01/25 01:57:09;;;;;;;1155.07;111.88;;;5.90;99.90;;;;;;4996909;28;20030;-67
2021/01/25 01:59:37;;;;;;;975.97;96.88;;;5.90;99.90;;;;;;5013747;28;20021;-65
2021/01/25 02:02:04;;;;;;;1018.90;101.78;;;5.90;99.90;;;;;;5014018;28;20046;-66
2021/01/25 02:04:33;;;;;;;1334.78;126.75;;;6.00;99.90;;;;;;5014552;28;20033;-66
2021/01/25 02:07:03;;;;;;;723.17;78.65;;;6.00;99.90;;;;;;5014275;28;20033;-67
2021/01/25 02:09:33;;;;;;;712.50;67.47;;;6.00;99.90;;;;;;5014040;28;20052;-67
2021/01/25 02:12:02;;;;;;;746.13;68.40;;;6.00;99.90;;;;;;5014270;28;20038;-67
2021/01/25 02:14:30;;;;;;;780.67;53.25;;;6.10;99.90;;;;;;5014756;28;20030;-67
2021/01/25 02:16:57;;;;;;;388.10;32.90;;;6.10;99.90;;;;;;5013524;28;20045;-67
2021/01/25 02:20:15;;;;;;;607.88;51.38;;;6.10;99.90;;;;;;5014373;28;20041;-66
2021/01/25 02:23:11;;;;;;;550.28;45.42;;;6.20;99.90;;;;;;5000121;28;20046;-66
2021/01/25 02:25:53;;;;;;;593.03;51.10;;;6.20;99.90;;;;;;4989705;28;20034;-68
2021/01/25 02:28:20;;;;;;;376.02;31.48;;;6.20;99.90;;;;;;5014042;28;20030;-68
2021/01/25 02:30:48;;;;;;;609.75;52.22;;;6.20;99.90;;;;;;5014385;28;20037;-65
2021/01/25 02:33:17;;;;;;;713.53;57.67;;;6.20;99.90;;;;;;5014201;28;20021;-66
2021/01/25 02:35:45;;;;;;;710.38;60.00;;;6.30;99.90;;;;;;4996889;28;20026;-64
2021/01/25 02:38:14;;;;;;;702.92;56.80;;;6.30;99.90;;;;;;5014101;28;20022;-65
2021/01/25 02:40:46;;;;;;;611.65;45.60;;;6.30;99.90;;;;;;5013931;28;20041;-65
2021/01/25 02:43:14;;;;;;;867.15;68.43;;;6.30;99.90;;;;;;5013877;28;20041;-66
2021/01/25 02:45:42;;;;;;;778.65;61.75;;;6.30;99.90;;;;;;5013951;28;20041;-66
2021/01/25 02:48:10;;;;;;;878.97;75.20;;;6.30;99.90;;;;;;5013146;28;20034;-66
2021/01/25 02:50:37;;;;;;;727.78;63.28;;;6.30;99.90;;;;;;5004917;28;20041;-66
2021/01/25 02:53:04;;;;;;;433.38;38.10;;;6.30;99.90;;;;;;4995037;28;20030;-66
2021/01/25 02:55:34;;;;;;;544.97;49.10;;;6.30;99.90;;;;;;5013617;28;20025;-66
2021/01/25 02:58:01;;;;;;;334.65;27.13;;;6.40;99.90;;;;;;5013778;28;20025;-69
2021/01/25 03:00:29;;;;;;;444.70;37.38;;;6.40;99.90;;;;;;5013349;28;20046;-67
2021/01/25 03:02:56;;;;;;;378.92;33.03;;;6.40;99.90;;;;;;5012608;28;20038;-65
2021/01/25 03:05:23;;;;;;;699.38;60.30;;;6.40;99.90;;;;;;5013047;28;20525;-67
2021/01/25 03:07:52;;;;;;;835.40;72.40;;;6.40;99.90;;;;;;4996281;28;20044;-66
2021/01/25 03:10:19;;;;;;;295.35;32.85;;;6.40;99.90;;;;;;5011950;28;20037;-66
2021/01/25 03:12:45;;;;;;;71.45;14.95;;;6.40;99.90;;;;;;5012944;28;20488;-66
2021/01/25 03:15:17;;;;;;;116.78;22.25;;;6.40;99.90;;;;;;5013218;28;20041;-68
2021/01/25 03:17:44;;;;;;;575.45;63.50;;;6.40;99.90;;;;;;5012395;28;20034;-69
2021/01/25 03:20:11;;;;;;;15.73;6.88;;;6.40;99.90;;;;;;5012496;28;20057;-68
2021/01/25 03:22:38;;;;;;;5.70;2.50;;;6.20;99.90;;;;;;5013205;28;20033;-67
2021/01/25 03:25:05;;;;;;;5.10;1.50;;;5.60;99.90;;;;;;5012774;28;20030;-66
2021/01/25 03:27:32;;;;;;;1.55;0.77;;;5.50;99.90;;;;;;5011245;28;20046;-66
2021/01/25 03:29:59;;;;;;;1.73;0.73;;;5.40;99.90;;;;;;5012554;28;20030;-67
2021/01/25 03:32:26;;;;;;;0.55;0.50;;;5.20;99.90;;;;;;4995045;28;20061;-66
2021/01/25 03:34:53;;;;;;;2.55;0.70;;;5.20;99.90;;;;;;5011699;28;20359;-68
2021/01/25 03:37:20;;;;;;;2.95;0.85;;;5.10;99.90;;;;;;5013515;28;20485;-67
2021/01/25 03:39:47;;;;;;;7.75;0.85;;;5.10;99.90;;;;;;5012649;28;20026;-66
2021/01/25 03:42:14;;;;;;;2.20;1.25;;;5.10;99.90;;;;;;5012473;28;20053;-67
2021/01/25 03:44:41;;;;;;;3.63;1.00;;;5.20;99.90;;;;;;5013220;28;20041;-66
2021/01/25 03:47:08;;;;;;;3.28;1.02;;;5.10;99.90;;;;;;5013003;28;20371;-67
2021/01/25 03:49:35;;;;;;;1.90;0.70;;;5.20;99.90;;;;;;5012711;28;20025;-67
2021/01/25 03:52:02;;;;;;;2.63;0.65;;;5.20;99.90;;;;;;4994798;28;20503;-68
2021/01/25 03:54:29;;;;;;;3.47;0.82;;;5.20;99.90;;;;;;5012800;28;20022;-67
2021/01/25 03:56:56;;;;;;;2.40;1.08;;;5.20;99.90;;;;;;5012586;28;20379;-67
2021/01/25 03:59:23;;;;;;;2.92;1.83;;;5.20;99.90;;;;;;5012599;28;20668;-65
2021/01/25 04:01:50;;;;;;;7.47;3.13;;;5.20;99.90;;;;;;5012639;28;20045;-66
2021/01/25 04:04:17;;;;;;;1.35;0.95;;;5.20;99.90;;;;;;5012189;28;20022;-66
2021/01/25 04:06:44;;;;;;;6.05;2.45;;;5.20;99.90;;;;;;5011557;28;20505;-66
2021/01/25 04:09:11;;;;;;;2.80;1.42;;;5.30;99.90;;;;;;5012145;28;20030;-67
2021/01/25 04:11:38;;;;;;;2.55;1.88;;;5.30;99.90;;;;;;5012331;28;20045;-67
2021/01/25 04:14:08;;;;;;;3.17;1.67;;;5.30;99.90;;;;;;5012177;28;20391;-67
2021/01/25 04:16:36;;;;;;;3.40;1.98;;;5.30;99.90;;;;;;5012908;28;20034;-68
2021/01/25 04:19:04;;;;;;;5.90;2.33;;;5.30;99.90;;;;;;5012903;28;20479;-66
2021/01/25 04:21:32;;;;;;;3.05;2.17;;;5.30;99.90;;;;;;5011460;28;20379;-66
2021/01/25 04:23:59;;;;;;;7.57;2.10;;;5.30;99.90;;;;;;5012551;28;20356;-67
2021/01/25 04:26:26;;;;;;;6.85;2.40;;;5.30;99.90;;;;;;5012089;28;20069;-68
2021/01/25 04:28:53;;;;;;;5.45;3.17;;;5.40;99.90;;;;;;5011851;28;20486;-68
2021/01/25 04:31:20;;;;;;;8.98;5.88;;;5.40;99.90;;;;;;5012013;28;20029;-67
2021/01/25 04:33:47;;;;;;;6.38;4.38;;;5.40;99.90;;;;;;5012007;28;20038;-66
2021/01/25 04:36:14;;;;;;;5.55;2.47;;;5.40;99.90;;;;;;5011945;28;20029;-66
2021/01/25 04:38:40;;;;;;;15.25;8.40;;;5.40;99.90;;;;;;5012110;28;20022;-65
2021/01/25 04:41:07;;;;;;;12.27;5.90;;;5.40;99.90;;;;;;5012136;28;20033;-66
2021/01/25 04:43:35;;;;;;;9.40;4.80;;;5.40;99.90;;;;;;5012404;28;20022;-66
2021/01/25 04:46:02;;;;;;;12.55;6.55;;;5.40;99.90;;;;;;5011759;28;20042;-67
2021/01/25 04:48:32;;;;;;;16.15;6.50;;;5.40;99.90;;;;;;5010928;28;20038;-67
2021/01/25 04:51:00;;;;;;;12.77;4.68;;;5.40;99.90;;;;;;5002250;28;20475;-67
2021/01/25 04:53:27;;;;;;;13.48;4.82;;;5.40;99.90;;;;;;4997215;28;20050;-66
2021/01/25 04:55:54;;;;;;;17.25;7.57;;;5.40;99.90;;;;;;5011702;28;20037;-66
2021/01/25 04:58:22;;;;;;;15.77;6.43;;;5.30;99.90;;;;;;5010955;28;20383;-67
2021/01/25 05:00:49;;;;;;;16.60;7.00;;;5.30;99.90;;;;;;5011807;28;20026;-66
2021/01/25 05:03:16;;;;;;;20.55;6.13;;;5.30;99.90;;;;;;5011049;28;20044;-67
2021/01/25 05:05:43;;;;;;;24.15;5.70;;;5.30;99.90;;;;;;5010358;28;20037;-67
2021/01/25 05:08:10;;;;;;;49.85;7.15;;;5.20;99.90;;;;;;5011499;28;20026;-67
2021/01/25 05:10:38;;;;;;;37.17;6.47;;;5.20;99.90;;;;;;5010445;28;20042;-67
2021/01/25 05:13:05;;;;;;;31.73;6.63;;;5.10;99.90;;;;;;5011391;28;21168;-67
2021/01/25 05:15:33;;;;;;;29.63;5.15;;;5.10;99.90;;;;;;5011352;28;20030;-68
2021/01/25 05:18:07;;;;;;;35.17;9.15;;;5.10;99.90;;;;;;5010765;28;20383;-68
2021/01/25 05:20:34;;;;;;;48.20;8.98;;;5.10;99.90;;;;;;5010792;28;20378;-69
2021/01/25 05:23:13;;;;;;;35.53;4.97;;;5.00;99.90;;;;;;5011452;28;20026;-69
2021/01/25 05:25:40;;;;;;;21.77;5.13;;;5.00;99.90;;;;;;5010909;28;20026;-70
2021/01/25 05:28:16;;;;;;;37.10;9.15;;;4.90;99.90;;;;;;5011076;28;20394;-69
2021/01/25 05:30:44;;;;;;;41.47;6.15;;;4.80;99.90;;;;;;5011160;28;20040;-69
2021/01/25 05:33:11;;;;;;;30.48;5.65;;;4.80;99.90;;;;;;5010947;28;20034;-68
2021/01/25 05:35:38;;;;;;;31.10;5.60;;;4.70;99.90;;;;;;5010840;28;20022;-67
2021/01/25 05:38:09;;;;;;;28.63;4.78;;;4.70;99.90;;;;;;5011121;28;20030;-67
2021/01/25 05:40:38;;;;;;;36.57;6.90;;;4.60;99.90;;;;;;5011019;28;20030;-68
2021/01/25 05:43:16;;;;;;;23.90;3.88;;;4.60;99.90;;;;;;4993269;28;20037;-68
2021/01/25 05:45:43;;;;;;;29.15;4.13;;;4.50;99.90;;;;;;5010545;28;20053;-69
2021/01/25 05:48:14;;;;;;;24.45;4.40;;;4.50;99.90;;;;;;5011243;28;20042;-70
2021/01/25 05:50:43;;;;;;;23.95;5.30;;;4.50;99.90;;;;;;5011496;28;20026;-71
2021/01/25 05:53:13;;;;;;;23.27;3.38;;;4.40;99.90;;;;;;4992943;28;20048;-70
2021/01/25 05:55:41;;;;;;;20.63;3.85;;;4.50;99.90;;;;;;5010380;28;20022;-71
2021/01/25 05:58:08;;;;;;;23.40;3.28;;;4.50;99.90;;;;;;5010841;28;20026;-71
2021/01/25 06:00:35;;;;;;;15.43;3.90;;;4.40;99.90;;;;;;5010012;28;20038;-72
2021/01/25 06:03:05;;;;;;;18.20;3.78;;;4.40;99.90;;;;;;5011114;28;20041;-71
2021/01/25 06:05:33;;;;;;;23.88;4.72;;;4.40;99.90;;;;;;5010291;28;20038;-71
2021/01/25 06:08:11;;;;;;;18.50;4.15;;;4.40;99.90;;;;;;5009758;28;20057;-71
2021/01/25 06:11:01;;;;;;;19.08;3.65;;;4.30;99.90;;;;;;5010144;28;20506;-71
2021/01/25 06:13:37;;;;;;;28.30;4.38;;;4.20;99.90;;;;;;5009879;28;20501;-72
2021/01/25 06:16:08;;;;;;;21.90;4.03;;;4.20;99.90;;;;;;5011011;28;20044;-72
2021/01/25 06:18:36;;;;;;;23.15;5.13;;;4.10;99.90;;;;;;5011286;28;20470;-71
2021/01/25 06:21:06;;;;;;;21.73;4.38;;;4.10;99.90;;;;;;5009586;28;20037;-71
2021/01/25 06:23:35;;;;;;;22.42;4.57;;;4.00;99.90;;;;;;5010610;28;20470;-71
2021/01/25 06:26:03;;;;;;;19.05;3.42;;;4.00;99.90;;;;;;4993344;28;20466;-71
2021/01/25 06:28:32;;;;;;;25.48;4.40;;;4.00;99.90;;;;;;5010997;28;20034;-70
2021/01/25 06:31:00;;;;;;;23.30;3.53;;;4.00;99.90;;;;;;5009383;28;20045;-71
2021/01/25 06:33:27;;;;;;;24.63;4.85;;;4.00;99.90;;;;;;5010905;28;20026;-70
2021/01/25 06:35:54;;;;;;;24.85;5.00;;;4.00;99.90;;;;;;5009559;28;20466;-70
2021/01/25 06:38:21;;;;;;;19.60;3.85;;;4.00;99.90;;;;;;5007025;28;20680;-71
2021/01/25 06:40:49;;;;;;;34.42;7.40;;;3.90;99.90;;;;;;5011689;28;20044;-71
2021/01/25 06:43:18;;;;;;;33.67;6.68;;;3.90;99.90;;;;;;5010036;28;20398;-70
2021/01/25 06:45:48;;;;;;;19.40;4.10;;;3.90;99.90;;;;;;5012252;28;20046;-70
2021/01/25 06:48:17;;;;;;;15.82;4.05;;;3.80;99.90;;;;;;5013626;28;20038;-71
2021/01/25 06:50:48;;;;;;;24.17;5.20;;;3.90;99.90;;;;;;5014023;28;20037;-72
2021/01/25 06:53:16;;;;;;;17.20;4.70;;;3.90;99.90;;;;;;5014191;28;20038;-70
2021/01/25 06:55:46;;;;;;;23.23;2.83;;;3.80;99.90;;;;;;5001444;28;20035;-74
2021/01/25 06:58:15;;;;;;;22.33;3.50;;;3.90;99.90;;;;;;4976369;28;20046;-73
2021/01/25 07:00:42;;;;;;;13.60;2.67;;;3.70;99.90;;;;;;5008172;28;20038;-73
2021/01/25 07:03:20;;;;;;;20.08;2.53;;;3.70;99.90;;;;;;5012547;28;20108;-71
2021/01/25 07:05:50;;;;;;;25.23;6.07;;;3.60;99.90;;;;;;5013808;28;20029;-73
2021/01/25 07:08:26;;;;;;;20.70;5.47;;;3.60;99.90;;;;;;5013968;28;20026;-71
2021/01/25 07:11:04;;;;;;;23.00;4.47;;;3.50;99.90;;;;;;5013809;28;20041;-73
2021/01/25 07:13:33;;;;;;;21.45;4.72;;;3.60;99.90;;;;;;5013703;28;20029;-71
2021/01/25 07:16:00;;;;;;;17.65;3.10;;;3.60;99.90;;;;;;4995381;28;20033;-73
2021/01/25 07:18:28;;;;;;;14.13;3.08;;;3.60;99.90;;;;;;5012489;28;20065;-69
2021/01/25 07:20:58;;;;;;;17.42;3.25;;;3.60;99.90;;;;;;5013598;28;20025;-70
2021/01/25 07:23:27;;;;;;;17.00;3.90;;;3.60;99.90;;;;;;5013279;28;20045;-71
2021/01/25 07:25:55;;;;;;;20.15;3.65;;;3.60;99.90;;;;;;5012687;28;20057;-70
2021/01/25 07:28:27;;;;;;;21.50;3.13;;;3.60;99.90;;;;;;5013040;28;20037;-70
2021/01/25 07:30:54;;;;;;;11.75;2.55;;;3.60;99.90;;;;;;5012477;28;20364;-70
2021/01/25 07:33:22;;;;;;;15.43;2.50;;;3.50;99.90;;;;;;5012666;28;20041;-71
2021/01/25 07:35:50;;;;;;;14.98;2.90;;;3.60;99.90;;;;;;5012924;28;20026;-70
2021/01/25 07:38:17;;;;;;;12.80;2.53;;;3.60;99.90;;;;;;5013330;28;20029;-71
2021/01/25 07:40:45;;;;;;;17.63;3.35;;;3.50;99.90;;;;;;5013299;28;20026;-72
2021/01/25 07:43:21;;;;;;;9.35;1.95;;;3.60;99.90;;;;;;5013029;28;20044;-71
2021/01/25 07:45:51;;;;;;;9.77;2.83;;;3.60;99.90;;;;;;5012660;28;20057;-72
2021/01/25 07:48:18;;;;;;;12.82;2.00;;;3.60;99.90;;;;;;5012266;28;20053;-72
2021/01/25 07:50:59;;;;;;;16.27;2.20;;;3.60;99.90;;;;;;5012661;28;20029;-71
2021/01/25 07:53:34;;;;;;;9.30;1.92;;;3.60;99.90;;;;;;5013008;28;20490;-72
2021/01/25 07:56:01;;;;;;;14.38;2.72;;;3.60;99.90;;;;;;4993692;28;20046;-70
2021/01/25 07:58:28;;;;;;;8.30;1.50;;;3.50;99.90;;;;;;5012952;28;20045;-70
2021/01/25 08:00:55;;;;;;;11.90;1.33;;;3.50;99.90;;;;;;5012510;28;20359;-71
2021/01/25 08:03:30;;;;;;;12.10;1.45;;;3.60;99.90;;;;;;5012960;28;20033;-70
2021/01/25 08:06:04;;;;;;;11.65;2.42;;;3.60;99.90;;;;;;5011419;28;20528;-70
2021/01/25 08:08:32;;;;;;;7.80;1.30;;;3.60;99.90;;;;;;5012032;28;20398;-72
2021/01/25 08:11:00;;;;;;;13.30;2.70;;;3.60;99.90;;;;;;5011393;28;20042;-72
2021/01/25 08:13:46;;;;;;;9.40;2.03;;;3.60;99.90;;;;;;5012451;28;20041;-72
2021/01/25 08:16:18;;;;;;;9.40;2.08;;;3.50;99.90;;;;;;5012635;28;20066;-72
2021/01/25 08:19:06;;;;;;;10.65;2.50;;;3.50;99.90;;;;;;5011927;28;20057;-73
2021/01/25 08:21:40;;;;;;;7.85;2.30;;;3.40;99.90;;;;;;4998604;28;20034;-73
2021/01/25 08:24:09;;;;;;;11.73;1.80;;;3.40;99.90;;;;;;5012051;28;20034;-71
2021/01/25 08:26:36;;;;;;;10.13;1.60;;;3.40;99.90;;;;;;5012014;28;20364;-71
2021/01/25 08:29:08;;;;;;;10.45;1.80;;;3.40;99.90;;;;;;5011497;28;20046;-70
2021/01/25 08:31:45;;;;;;;11.80;1.70;;;3.30;99.90;;;;;;5011780;28;20414;-70
2021/01/25 08:34:26;;;;;;;15.30;2.17;;;3.40;99.90;;;;;;5012156;28;20082;-71
2021/01/25 08:37:08;;;;;;;7.63;1.38;;;3.30;99.90;;;;;;5011624;28;20045;-70
2021/01/25 08:39:44;;;;;;;11.75;2.42;;;3.40;99.90;;;;;;5012063;28;20034;-71
2021/01/25 08:42:24;;;;;;;11.45;1.55;;;3.40;99.90;;;;;;5004089;28;20038;-72
2021/01/25 08:44:55;;;;;;;12.13;1.75;;;3.40;99.90;;;;;;5010884;28;20398;-71
2021/01/25 08:47:25;;;;;;;9.50;2.03;;;3.50;99.90;;;;;;5011104;28;20046;-72
2021/01/25 08:49:53;;;;;;;8.93;1.50;;;3.40;99.90;;;;;;5011445;28;20030;-72
2021/01/25 08:52:32;;;;;;;7.78;2.45;;;3.40;99.90;;;;;;5011823;28;20034;-71
2021/01/25 08:55:25;;;;;;;9.90;1.50;;;3.40;99.90;;;;;;5011443;28;20033;-72
2021/01/25 08:57:53;;;;;;;15.88;1.80;;;3.40;99.90;;;;;;5011843;28;20034;-71
2021/01/25 09:00:35;;;;;;;15.20;2.53;;;3.40;99.90;;;;;;5011798;28;20022;-71
2021/01/25 09:03:05;;;;;;;;;;;3.40;99.90;;;;;;5010856;28;20057;-71
2021/01/25 09:05:33;;;;;;;5.80;1.75;;;3.40;99.90;;;;;;5008014;28;20005;-71
2021/01/25 09:08:00;;;;;;;7.93;1.85;;;3.40;99.90;;;;;;5010548;28;20030;-71
2021/01/25 09:10:27;;;;;;;11.95;1.70;;;3.40;99.90;;;;;;5001321;28;20076;-70
2021/01/25 09:12:54;;;;;;;4.50;1.38;;;3.50;99.90;;;;;;5002348;28;20034;-71
2021/01/25 09:15:22;;;;;;;6.32;1.48;;;3.50;99.90;;;;;;5010426;28;20038;-71
2021/01/25 09:17:49;;;;;;;6.63;1.13;;;3.50;99.90;;;;;;5011099;28;20055;-71
2021/01/25 09:20:16;;;;;;;5.07;0.80;;;3.50;99.90;;;;;;4993833;28;20037;-70
2021/01/25 09:22:43;;;;;;;6.05;0.90;;;3.50;99.90;;;;;;5010887;28;20041;-71
2021/01/25 09:25:12;;;;;;;6.35;1.08;;;3.50;99.90;;;;;;5011282;28;20033;-70
2021/01/25 09:27:43;;;;;;;8.68;1.17;;;3.40;99.90;;;;;;5011152;28;20055;-70
2021/01/25 09:30:13;;;;;;;6.60;0.80;;;3.40;99.90;;;;;;5011828;28;20052;-70
2021/01/25 09:32:40;;;;;;;4.90;1.05;;;3.40;99.90;;;;;;5011627;28;20474;-69
2021/01/25 09:35:09;;;;;;;4.88;0.85;;;3.40;99.90;;;;;;5010995;28;20034;-70
2021/01/25 09:37:36;;;;;;;6.50;1.17;;;3.40;99.90;;;;;;5010716;28;20036;-69
2021/01/25 09:40:05;;;;;;;6.07;1.00;;;3.40;99.90;;;;;;5011098;28;20482;-70
2021/01/25 09:42:32;;;;;;;5.60;0.93;;;3.50;99.90;;;;;;5011147;28;20045;-70
2021/01/25 09:44:59;;;;;;;6.88;1.10;;;3.50;99.90;;;;;;5010586;28;20394;-69
2021/01/25 09:47:26;;;;;;;7.20;0.80;;;3.40;99.90;;;;;;5011550;28;20489;-71
2021/01/25 09:49:53;;;;;;;7.80;1.20;;;3.50;99.90;;;;;;5010693;28;20029;-73
2021/01/25 09:52:20;;;;;;;4.78;0.60;;;3.40;99.90;;;;;;5010347;28;20513;-70
2021/01/25 09:54:47;;;;;;;5.75;0.70;;;3.50;99.90;;;;;;5010704;28;20390;-71
2021/01/25 09:57:14;;;;;;;4.63;1.23;;;3.40;99.90;;;;;;5011243;28;20037;-69
2021/01/25 09:59:40;;;;;;;4.32;0.70;;;3.40;99.90;;;;;;5010290;28;20033;-71
2021/01/25 10:02:07;;;;;;;8.55;1.67;;;3.40;99.90;;;;;;5010862;28;20033;-71
2021/01/25 10:04:34;;;;;;;3.97;0.50;;;3.40;99.90;;;;;;5011055;28;20474;-69
2021/01/25 10:07:01;;;;;;;3.33;0.70;;;3.40;99.90;;;;;;5010753;28;20030;-71
2021/01/25 10:09:28;;;;;;;4.05;0.57;;;3.30;99.90;;;;;;5011220;28;20026;-71
2021/01/25 10:11:55;;;;;;;4.32;0.82;;;3.30;99.90;;;;;;5010486;28;20030;-72
2021/01/25 10:14:22;;;;;;;6.45;0.68;;;3.30;99.90;;;;;;5009575;28;20046;-73
2021/01/25 10:16:49;;;;;;;2.72;0.65;;;3.30;99.90;;;;;;5010578;28;20378;-72
2021/01/25 10:19:15;;;;;;;5.38;0.90;;;3.30;99.90;;;;;;4993526;28;20037;-71
2021/01/25 10:21:42;;;;;;;5.40;0.88;;;3.40;99.90;;;;;;5014344;28;20557;-71
2021/01/25 10:24:10;;;;;;;3.45;1.00;;;3.40;99.90;;;;;;4996917;28;20060;-72
2021/01/25 10:26:37;;;;;;;2.60;0.55;;;3.30;99.90;;;;;;5015269;28;20025;-71
2021/01/25 10:29:04;;;;;;;6.15;0.70;;;3.40;99.90;;;;;;5014496;28;20037;-72
2021/01/25 10:31:31;;;;;;;5.07;0.75;;;3.50;99.90;;;;;;5013878;28;20025;-72
2021/01/25 10:33:58;;;;;;;2.03;0.60;;;3.40;99.90;;;;;;5014533;28;20033;-72
2021/01/25 10:36:25;;;;;;;1.50;0.40;;;3.40;99.90;;;;;;5014264;28;20030;-72
2021/01/25 10:38:52;;;;;;;1.58;0.45;;;3.50;99.90;;;;;;4996987;28;20038;-71
2021/01/25 10:41:20;;;;;;;4.97;0.75;;;3.50;99.90;;;;;;5014366;28;20033;-72
2021/01/25 10:43:47;;;;;;;5.32;1.23;;;3.40;99.90;;;;;;5012660;28;20520;-71
2021/01/25 10:46:15;;;;;;;3.88;0.90;;;3.40;99.90;;;;;;5013757;28;20056;-72
2021/01/25 10:48:42;;;;;;;6.57;0.70;;;3.40;99.90;;;;;;4995419;28;20056;-73
2021/01/25 10:51:10;;;;;;;4.68;0.50;;;3.40;99.90;;;;;;5013769;28;20026;-71
2021/01/25 10:53:38;;;;;;;3.70;0.82;;;3.30;99.90;;;;;;5013358;28;20551;-72
2021/01/25 10:56:05;;;;;;;4.22;1.05;;;3.30;99.90;;;;;;5014106;28;20474;-72
2021/01/25 10:58:32;;;;;;;3.60;0.60;;;3.20;99.90;;;;;;4995922;28;20517;-72
2021/01/25 11:00:59;;;;;;;3.90;0.85;;;3.10;99.90;;;;;;5013839;28;20042;-74
2021/01/25 11:03:26;;;;;;;2.50;0.50;;;3.20;99.90;;;;;;5013568;28;20034;-73
2021/01/25 11:05:52;;;;;;;7.15;1.02;;;3.10;99.90;;;;;;5012560;28;20502;-71
2021/01/25 11:08:19;;;;;;;6.40;0.80;;;3.10;99.90;;;;;;5013108;28;20034;-72
2021/01/25 11:10:46;;;;;;;3.15;0.70;;;3.10;99.90;;;;;;5013879;28;20402;-72
2021/01/25 11:13:13;;;;;;;2.50;0.85;;;3.10;99.90;;;;;;5013529;28;20370;-71
2021/01/25 11:15:40;;;;;;;7.53;0.88;;;3.10;99.90;;;;;;4995681;28;20041;-72
2021/01/25 11:18:07;;;;;;;8.25;1.92;;;3.00;99.90;;;;;;5013672;28;20052;-71
2021/01/25 11:20:34;;;;;;;8.30;0.95;;;3.00;99.90;;;;;;5013751;28;20030;-73
2021/01/25 11:23:01;;;;;;;4.68;0.88;;;3.00;99.90;;;;;;5013581;28;20506;-73
2021/01/25 11:25:28;;;;;;;3.05;0.70;;;3.10;99.90;;;;;;4995528;28;20038;-70
2021/01/25 11:27:55;;;;;;;3.95;0.88;;;3.10;99.90;;;;;;5013337;28;20022;-72
2021/01/25 11:30:23;;;;;;;4.65;1.42;;;3.10;99.90;;;;;;5013580;28;20026;-72
2021/01/25 11:32:50;;;;;;;2.95;0.50;;;3.10;99.90;;;;;;5013256;28;20471;-72
2021/01/25 11:35:17;;;;;;;3.58;0.60;;;3.20;99.90;;;;;;5013498;28;20479;-72
2021/01/25 11:37:43;;;;;;;4.57;1.15;;;3.20;99.90;;;;;;5012114;28;20050;-72
2021/01/25 11:40:11;;;;;;;3.83;0.70;;;3.10;99.90;;;;;;5013355;28;20026;-72
2021/01/25 11:42:37;;;;;;;4.13;1.30;;;3.10;99.90;;;;;;5002548;28;20651;-71
2021/01/25 11:45:06;;;;;;;4.95;0.77;;;3.10;99.90;;;;;;5012668;28;20526;-71
2021/01/25 11:47:32;;;;;;;2.95;0.50;;;3.00;99.90;;;;;;5012770;28;20026;-71
2021/01/25 11:49:59;;;;;;;2.33;0.50;;;3.00;99.90;;;;;;5013321;28;20029;-72
2021/01/25 11:52:26;;;;;;;5.30;0.60;;;3.10;99.90;;;;;;5012557;28;20041;-71
2021/01/25 11:54:53;;;;;;;3.03;0.40;;;3.10;99.90;;;;;;5012970;28;20417;-72
2021/01/25 11:57:20;;;;;;;4.55;0.80;;;3.10;99.90;;;;;;5012036;28;20367;-71
2021/01/25 11:59:47;;;;;;;6.78;1.00;;;3.10;99.90;;;;;;5012149;28;20049;-72
2021/01/25 12:02:14;;;;;;;3.42;0.63;;;3.00;99.90;;;;;;5012973;28;20033;-72
2021/01/25 12:04:41;;;;;;;4.72;0.70;;;3.00;99.90;;;;;;5012372;28;20041;-72
2021/01/25 12:07:07;;;;;;;2.80;0.63;;;3.00;99.90;;;;;;5011739;28;20386;-71
2021/01/25 12:09:34;;;;;;;4.30;0.85;;;2.90;99.90;;;;;;5012486;28;20406;-72
2021/01/25 12:12:01;;;;;;;5.82;0.52;;;2.90;99.90;;;;;;5012440;28;20057;-71
2021/01/25 12:14:28;;;;;;;4.63;0.43;;;2.80;99.90;;;;;;5012975;28;20453;-70
2021/01/25 12:16:55;;;;;;;1.67;0.40;;;2.80;99.90;;;;;;5012813;28;20398;-71
2021/01/25 12:19:23;;;;;;;2.22;0.82;;;2.90;99.90;;;;;;5012139;28;20401;-71
2021/01/25 12:21:49;;;;;;;3.70;0.50;;;2.90;99.90;;;;;;5011385;28;20368;-71
2021/01/25 12:24:16;;;;;;;3.13;0.70;;;3.00;99.90;;;;;;5012453;28;20375;-71
2021/01/25 12:26:44;;;;;;;4.72;0.63;;;3.10;99.90;;;;;;5011680;28;20034;-71
2021/01/25 12:29:11;;;;;;;4.28;0.57;;;3.00;99.90;;;;;;5011419;28;20042;-71
2021/01/25 12:31:38;;;;;;;1.75;0.32;;;2.90;99.90;;;;;;4994077;28;20398;-70
2021/01/25 12:34:05;;;;;;;17.40;1.95;;;2.90;99.90;;;;;;5012394;28;20030;-71
2021/01/25 12:36:32;;;;;;;2.08;0.45;;;3.00;99.90;;;;;;4993757;28;20041;-70
2021/01/25 12:38:59;;;;;;;5.53;0.90;;;3.00;99.90;;;;;;5010662;28;20046;-72
2021/01/25 12:41:26;;;;;;;3.78;0.57;;;3.00;99.90;;;;;;4993496;28;20101;-71
2021/01/25 12:43:53;;;;;;;3.40;0.95;;;2.90;99.90;;;;;;5010914;28;20046;-70
2021/01/25 12:46:21;;;;;;;1.67;0.43;;;3.00;99.90;;;;;;5012227;28;20042;-71
2021/01/25 12:48:49;;;;;;;2.55;0.50;;;3.00;99.90;;;;;;5011919;28;20030;-71
2021/01/25 12:51:16;;;;;;;3.08;0.50;;;2.90;99.90;;;;;;5011780;28;20408;-71
2021/01/25 12:53:43;;;;;;;4.63;0.70;;;2.90;99.90;;;;;;5011455;28;20036;-72
2021/01/25 12:56:10;;;;;;;4.30;0.40;;;3.00;99.90;;;;;;5011984;28;20026;-72